< Typhoon 197116 1971 Season Typhoon 197118 >
Typhoon 197117 (MARY)
General InformationTrack Information on Google Maps || Disaster Info.ResourceGoogle EarthGE AnimationAtom FeedGeoJSON
Detalied Best Track (Time Zone = UTC)
Year Month Day Hour Lat. Long. Pressure (hPa) Wind (kt) Class Image Chart
1971 7 16 00 25.2 171.3 1012 0 2 -- Chart
1971 7 16 06 25.7 169.8 1008 0 2 -- Chart
1971 7 16 12 26.2 168.1 1006 0 2 -- Chart
1971 7 16 18 26.8 166.6 1002 0 2 -- Chart
1971 7 17 00 27.6 165.2 998 0 9 -- Chart
1971 7 17 06 28.2 165.0 1000 0 9 -- Chart
1971 7 17 12 28.5 165.0 1000 0 9 -- Chart
1971 7 17 18 28.9 165.1 1000 0 9 -- Chart
1971 7 18 00 29.3 165.0 1000 0 9 -- Chart
1971 7 18 06 29.7 164.8 990 0 9 -- Chart
1971 7 18 12 30.3 164.4 980 0 9 -- Chart
1971 7 18 18 30.8 164.0 975 0 9 -- Chart
1971 7 19 00 31.4 163.5 975 0 9 -- Chart
1971 7 19 06 32.0 163.0 975 0 9 -- Chart
1971 7 19 12 33.0 162.0 980 0 9 -- Chart
1971 7 19 18 33.9 161.1 980 0 9 -- Chart
1971 7 20 00 34.9 160.7 985 0 9 -- Chart
1971 7 20 06 35.7 161.0 985 0 9 -- Chart
1971 7 20 12 36.9 161.3 990 0 9 -- Chart
1971 7 20 18 39.3 162.0 990 0 9 -- Chart
1971 7 21 00 40.5 163.0 992 0 9 -- Chart
1971 7 21 06 41.8 164.4 995 0 9 -- Chart
1971 7 21 12 43.6 167.0 1000 0 6 -- Chart
1971 7 21 18 44.0 171.5 1004 0 6 -- Chart
1971 7 22 00 44.0 177.0 1006 0 6 -- Chart
Japan Meteorological Agency Best Track Data | Correction Date : 1989-06-01
< Typhoon 197116 1971 Season Typhoon 197118 >

Help